sensor_id;sensor_type;location;lat;lon;timestamp;P1;durP1;ratioP1;P2;durP2;ratioP2
13303;SDS011;6720;51.958;4.540;2022-11-15T00:00:54;84.43;;;36.23;;
13303;SDS011;6720;51.958;4.540;2022-11-15T00:03:21;78.10;;;35.43;;
13303;SDS011;6720;51.958;4.540;2022-11-15T00:05:48;99.27;;;37.33;;
13303;SDS011;6720;51.958;4.540;2022-11-15T00:08:14;84.83;;;35.57;;
13303;SDS011;6720;51.958;4.540;2022-11-15T00:10:39;89.23;;;36.80;;
13303;SDS011;6720;51.958;4.540;2022-11-15T00:13:06;78.60;;;36.90;;
13303;SDS011;6720;51.958;4.540;2022-11-15T00:15:40;85.23;;;37.03;;
13303;SDS011;6720;51.958;4.540;2022-11-15T00:18:06;97.87;;;38.37;;
13303;SDS011;6720;51.958;4.540;2022-11-15T00:20:37;88.90;;;36.83;;
13303;SDS011;6720;51.958;4.540;2022-11-15T00:23:03;91.47;;;38.13;;
13303;SDS011;6720;51.958;4.540;2022-11-15T00:25:29;96.60;;;37.30;;
13303;SDS011;6720;51.958;4.540;2022-11-15T00:27:55;103.17;;;39.03;;
13303;SDS011;6720;51.958;4.540;2022-11-15T00:30:21;96.77;;;38.00;;
13303;SDS011;6720;51.958;4.540;2022-11-15T00:32:47;108.33;;;38.77;;
13303;SDS011;6720;51.958;4.540;2022-11-15T00:35:12;109.13;;;40.03;;
13303;SDS011;6720;51.958;4.540;2022-11-15T00:37:38;103.70;;;40.07;;
13303;SDS011;6720;51.958;4.540;2022-11-15T00:40:03;97.93;;;38.67;;
13303;SDS011;6720;51.958;4.540;2022-11-15T00:42:29;108.20;;;41.83;;
13303;SDS011;6720;51.958;4.540;2022-11-15T00:44:54;108.97;;;38.97;;
13303;SDS011;6720;51.958;4.540;2022-11-15T00:47:19;99.33;;;39.83;;
13303;SDS011;6720;51.958;4.540;2022-11-15T00:49:45;117.20;;;41.57;;
13303;SDS011;6720;51.958;4.540;2022-11-15T00:52:10;108.13;;;39.90;;
13303;SDS011;6720;51.958;4.540;2022-11-15T00:54:35;101.43;;;40.93;;
13303;SDS011;6720;51.958;4.540;2022-11-15T00:57:01;113.83;;;41.70;;
13303;SDS011;6720;51.958;4.540;2022-11-15T00:59:36;118.00;;;41.57;;
13303;SDS011;6720;51.958;4.540;2022-11-15T01:02:19;118.97;;;42.47;;
13303;SDS011;6720;51.958;4.540;2022-11-15T01:04:44;110.47;;;42.67;;
13303;SDS011;6720;51.958;4.540;2022-11-15T01:07:10;111.80;;;42.47;;
13303;SDS011;6720;51.958;4.540;2022-11-15T01:09:35;116.57;;;43.77;;
13303;SDS011;6720;51.958;4.540;2022-11-15T01:12:00;120.33;;;43.40;;
13303;SDS011;6720;51.958;4.540;2022-11-15T01:14:27;119.53;;;43.83;;
13303;SDS011;6720;51.958;4.540;2022-11-15T01:16:52;118.33;;;43.17;;
13303;SDS011;6720;51.958;4.540;2022-11-15T01:19:17;115.60;;;44.17;;
13303;SDS011;6720;51.958;4.540;2022-11-15T01:21:43;118.47;;;43.90;;
13303;SDS011;6720;51.958;4.540;2022-11-15T01:24:10;119.77;;;44.13;;
13303;SDS011;6720;51.958;4.540;2022-11-15T01:26:37;120.33;;;42.43;;
13303;SDS011;6720;51.958;4.540;2022-11-15T01:29:03;122.47;;;44.30;;
13303;SDS011;6720;51.958;4.540;2022-11-15T01:31:28;126.57;;;43.57;;
13303;SDS011;6720;51.958;4.540;2022-11-15T01:33:54;117.57;;;44.60;;
13303;SDS011;6720;51.958;4.540;2022-11-15T01:36:20;115.03;;;44.10;;
13303;SDS011;6720;51.958;4.540;2022-11-15T01:38:47;116.53;;;45.93;;
13303;SDS011;6720;51.958;4.540;2022-11-15T01:41:22;114.67;;;43.83;;
13303;SDS011;6720;51.958;4.540;2022-11-15T01:43:52;123.40;;;44.97;;
13303;SDS011;6720;51.958;4.540;2022-11-15T01:46:22;118.33;;;44.07;;
13303;SDS011;6720;51.958;4.540;2022-11-15T01:48:50;118.43;;;44.63;;
13303;SDS011;6720;51.958;4.540;2022-11-15T01:51:18;111.93;;;43.97;;
13303;SDS011;6720;51.958;4.540;2022-11-15T01:53:45;120.63;;;45.43;;
13303;SDS011;6720;51.958;4.540;2022-11-15T01:56:15;121.43;;;46.53;;
13303;SDS011;6720;51.958;4.540;2022-11-15T01:58:43;111.27;;;44.70;;
13303;SDS011;6720;51.958;4.540;2022-11-15T02:01:10;123.07;;;47.13;;
13303;SDS011;6720;51.958;4.540;2022-11-15T02:03:48;113.73;;;44.50;;
13303;SDS011;6720;51.958;4.540;2022-11-15T02:06:19;113.03;;;45.87;;
13303;SDS011;6720;51.958;4.540;2022-11-15T02:08:46;111.93;;;43.83;;
13303;SDS011;6720;51.958;4.540;2022-11-15T02:11:12;112.30;;;44.87;;
13303;SDS011;6720;51.958;4.540;2022-11-15T02:13:37;118.87;;;45.77;;
13303;SDS011;6720;51.958;4.540;2022-11-15T02:18:46;114.33;;;44.50;;
13303;SDS011;6720;51.958;4.540;2022-11-15T02:21:36;112.90;;;44.83;;
13303;SDS011;6720;51.958;4.540;2022-11-15T02:26:41;115.47;;;45.53;;
13303;SDS011;6720;51.958;4.540;2022-11-15T02:32:40;111.90;;;43.30;;
13303;SDS011;6720;51.958;4.540;2022-11-15T02:35:15;113.83;;;42.73;;
13303;SDS011;6720;51.958;4.540;2022-11-15T02:37:51;110.13;;;43.60;;
13303;SDS011;6720;51.958;4.540;2022-11-15T02:42:49;98.40;;;40.80;;
13303;SDS011;6720;51.958;4.540;2022-11-15T02:45:39;101.27;;;43.57;;
13303;SDS011;6720;51.958;4.540;2022-11-15T02:48:10;101.90;;;43.57;;
13303;SDS011;6720;51.958;4.540;2022-11-15T02:50:37;101.00;;;45.00;;
13303;SDS011;6720;51.958;4.540;2022-11-15T02:53:03;101.20;;;45.90;;
13303;SDS011;6720;51.958;4.540;2022-11-15T02:55:29;100.43;;;42.60;;
13303;SDS011;6720;51.958;4.540;2022-11-15T03:00:41;96.70;;;41.63;;
13303;SDS011;6720;51.958;4.540;2022-11-15T03:13:46;83.67;;;40.53;;
13303;SDS011;6720;51.958;4.540;2022-11-15T03:16:34;79.53;;;38.50;;
13303;SDS011;6720;51.958;4.540;2022-11-15T03:19:14;84.57;;;40.33;;
13303;SDS011;6720;51.958;4.540;2022-11-15T03:21:45;73.97;;;38.90;;
13303;SDS011;6720;51.958;4.540;2022-11-15T03:24:12;75.10;;;39.80;;
13303;SDS011;6720;51.958;4.540;2022-11-15T03:26:42;75.00;;;38.70;;
13303;SDS011;6720;51.958;4.540;2022-11-15T03:29:14;77.33;;;37.40;;
13303;SDS011;6720;51.958;4.540;2022-11-15T03:31:45;71.70;;;37.57;;
13303;SDS011;6720;51.958;4.540;2022-11-15T03:36:45;71.40;;;37.50;;
13303;SDS011;6720;51.958;4.540;2022-11-15T03:39:11;62.03;;;34.67;;
13303;SDS011;6720;51.958;4.540;2022-11-15T03:41:40;64.77;;;33.93;;
13303;SDS011;6720;51.958;4.540;2022-11-15T03:47:04;58.73;;;32.57;;
13303;SDS011;6720;51.958;4.540;2022-11-15T03:49:35;53.03;;;30.90;;
13303;SDS011;6720;51.958;4.540;2022-11-15T03:52:03;56.03;;;31.33;;
13303;SDS011;6720;51.958;4.540;2022-11-15T03:54:30;50.33;;;29.30;;
13303;SDS011;6720;51.958;4.540;2022-11-15T03:56:55;51.73;;;28.67;;
13303;SDS011;6720;51.958;4.540;2022-11-15T03:59:21;52.90;;;28.27;;
13303;SDS011;6720;51.958;4.540;2022-11-15T04:01:47;48.93;;;29.10;;
13303;SDS011;6720;51.958;4.540;2022-11-15T04:04:12;42.63;;;27.73;;
13303;SDS011;6720;51.958;4.540;2022-11-15T04:06:38;46.17;;;27.83;;
13303;SDS011;6720;51.958;4.540;2022-11-15T04:09:03;46.10;;;27.50;;
13303;SDS011;6720;51.958;4.540;2022-11-15T04:11:29;44.80;;;27.80;;
13303;SDS011;6720;51.958;4.540;2022-11-15T04:13:54;45.17;;;27.43;;
13303;SDS011;6720;51.958;4.540;2022-11-15T04:16:20;43.77;;;26.53;;
13303;SDS011;6720;51.958;4.540;2022-11-15T04:18:45;40.40;;;25.57;;
13303;SDS011;6720;51.958;4.540;2022-11-15T04:21:30;45.23;;;26.50;;
13303;SDS011;6720;51.958;4.540;2022-11-15T04:24:14;41.30;;;24.47;;
13303;SDS011;6720;51.958;4.540;2022-11-15T04:26:40;38.97;;;25.47;;
13303;SDS011;6720;51.958;4.540;2022-11-15T04:29:05;36.53;;;23.50;;
13303;SDS011;6720;51.958;4.540;2022-11-15T04:31:49;37.93;;;22.83;;
13303;SDS011;6720;51.958;4.540;2022-11-15T04:34:14;36.90;;;23.23;;
13303;SDS011;6720;51.958;4.540;2022-11-15T04:36:40;36.73;;;22.87;;
13303;SDS011;6720;51.958;4.540;2022-11-15T04:39:23;33.80;;;22.00;;
13303;SDS011;6720;51.958;4.540;2022-11-15T04:41:49;32.87;;;22.77;;
13303;SDS011;6720;51.958;4.540;2022-11-15T04:44:16;34.30;;;20.73;;
13303;SDS011;6720;51.958;4.540;2022-11-15T04:46:41;31.10;;;21.23;;
13303;SDS011;6720;51.958;4.540;2022-11-15T04:49:07;33.50;;;21.10;;
13303;SDS011;6720;51.958;4.540;2022-11-15T04:51:32;26.50;;;19.60;;
13303;SDS011;6720;51.958;4.540;2022-11-15T04:53:58;34.33;;;20.03;;
13303;SDS011;6720;51.958;4.540;2022-11-15T04:56:24;29.90;;;19.70;;
13303;SDS011;6720;51.958;4.540;2022-11-15T04:58:49;31.60;;;19.23;;
13303;SDS011;6720;51.958;4.540;2022-11-15T05:01:15;27.80;;;18.23;;
13303;SDS011;6720;51.958;4.540;2022-11-15T05:03:41;32.57;;;19.23;;
13303;SDS011;6720;51.958;4.540;2022-11-15T05:06:26;28.13;;;19.03;;
13303;SDS011;6720;51.958;4.540;2022-11-15T05:08:51;24.63;;;19.10;;
13303;SDS011;6720;51.958;4.540;2022-11-15T05:11:17;26.13;;;17.93;;
13303;SDS011;6720;51.958;4.540;2022-11-15T05:13:42;28.03;;;17.33;;
13303;SDS011;6720;51.958;4.540;2022-11-15T05:16:07;27.20;;;17.37;;
13303;SDS011;6720;51.958;4.540;2022-11-15T05:18:33;25.17;;;16.57;;
13303;SDS011;6720;51.958;4.540;2022-11-15T05:21:05;22.40;;;16.03;;
13303;SDS011;6720;51.958;4.540;2022-11-15T05:23:32;27.57;;;17.07;;
13303;SDS011;6720;51.958;4.540;2022-11-15T05:26:04;24.30;;;16.83;;
13303;SDS011;6720;51.958;4.540;2022-11-15T05:28:31;19.73;;;15.73;;
13303;SDS011;6720;51.958;4.540;2022-11-15T05:31:03;27.83;;;14.77;;
13303;SDS011;6720;51.958;4.540;2022-11-15T05:33:31;24.70;;;15.10;;
13303;SDS011;6720;51.958;4.540;2022-11-15T05:36:01;25.03;;;14.67;;
13303;SDS011;6720;51.958;4.540;2022-11-15T05:38:30;22.30;;;13.07;;
13303;SDS011;6720;51.958;4.540;2022-11-15T05:40:56;21.27;;;13.47;;
13303;SDS011;6720;51.958;4.540;2022-11-15T05:43:22;19.37;;;14.03;;
13303;SDS011;6720;51.958;4.540;2022-11-15T05:45:48;19.67;;;11.13;;
13303;SDS011;6720;51.958;4.540;2022-11-15T05:48:13;20.63;;;11.77;;
13303;SDS011;6720;51.958;4.540;2022-11-15T05:50:41;16.77;;;12.20;;
13303;SDS011;6720;51.958;4.540;2022-11-15T05:53:09;19.17;;;10.90;;
13303;SDS011;6720;51.958;4.540;2022-11-15T05:55:37;19.07;;;11.33;;
13303;SDS011;6720;51.958;4.540;2022-11-15T05:58:04;15.60;;;10.20;;
13303;SDS011;6720;51.958;4.540;2022-11-15T06:00:29;13.23;;;10.50;;
13303;SDS011;6720;51.958;4.540;2022-11-15T06:02:54;16.60;;;10.43;;
13303;SDS011;6720;51.958;4.540;2022-11-15T06:05:20;14.23;;;9.63;;
13303;SDS011;6720;51.958;4.540;2022-11-15T06:07:45;15.67;;;9.70;;
13303;SDS011;6720;51.958;4.540;2022-11-15T06:10:10;11.33;;;9.03;;
13303;SDS011;6720;51.958;4.540;2022-11-15T06:12:36;12.77;;;8.80;;
13303;SDS011;6720;51.958;4.540;2022-11-15T06:15:01;15.40;;;8.70;;
13303;SDS011;6720;51.958;4.540;2022-11-15T06:17:28;11.53;;;7.97;;
13303;SDS011;6720;51.958;4.540;2022-11-15T06:19:53;13.17;;;7.90;;
13303;SDS011;6720;51.958;4.540;2022-11-15T06:22:19;14.17;;;8.47;;
13303;SDS011;6720;51.958;4.540;2022-11-15T06:24:44;13.13;;;7.97;;
13303;SDS011;6720;51.958;4.540;2022-11-15T06:27:10;11.90;;;7.73;;
13303;SDS011;6720;51.958;4.540;2022-11-15T06:29:36;12.33;;;8.30;;
13303;SDS011;6720;51.958;4.540;2022-11-15T06:32:01;11.57;;;7.63;;
13303;SDS011;6720;51.958;4.540;2022-11-15T06:34:27;14.40;;;7.57;;
13303;SDS011;6720;51.958;4.540;2022-11-15T06:36:52;12.83;;;8.43;;
13303;SDS011;6720;51.958;4.540;2022-11-15T06:39:18;13.27;;;7.67;;
13303;SDS011;6720;51.958;4.540;2022-11-15T06:41:43;12.53;;;7.57;;
13303;SDS011;6720;51.958;4.540;2022-11-15T06:44:08;13.63;;;7.30;;
13303;SDS011;6720;51.958;4.540;2022-11-15T06:46:34;14.10;;;6.97;;
13303;SDS011;6720;51.958;4.540;2022-11-15T06:48:59;14.83;;;7.70;;
13303;SDS011;6720;51.958;4.540;2022-11-15T06:51:24;12.80;;;6.70;;
13303;SDS011;6720;51.958;4.540;2022-11-15T06:53:50;11.50;;;6.60;;
13303;SDS011;6720;51.958;4.540;2022-11-15T06:56:15;11.93;;;6.83;;
13303;SDS011;6720;51.958;4.540;2022-11-15T06:58:40;13.53;;;6.57;;
13303;SDS011;6720;51.958;4.540;2022-11-15T07:01:08;13.67;;;7.60;;
13303;SDS011;6720;51.958;4.540;2022-11-15T07:03:35;11.00;;;6.80;;
13303;SDS011;6720;51.958;4.540;2022-11-15T07:06:03;16.53;;;7.70;;
13303;SDS011;6720;51.958;4.540;2022-11-15T07:08:29;16.40;;;8.60;;
13303;SDS011;6720;51.958;4.540;2022-11-15T07:10:57;11.60;;;7.57;;
13303;SDS011;6720;51.958;4.540;2022-11-15T07:13:25;15.17;;;7.30;;
13303;SDS011;6720;51.958;4.540;2022-11-15T07:15:51;25.33;;;8.63;;
13303;SDS011;6720;51.958;4.540;2022-11-15T07:18:16;18.67;;;8.37;;
13303;SDS011;6720;51.958;4.540;2022-11-15T07:20:41;11.77;;;7.60;;
13303;SDS011;6720;51.958;4.540;2022-11-15T07:23:07;11.00;;;7.03;;
13303;SDS011;6720;51.958;4.540;2022-11-15T07:25:32;12.27;;;7.53;;
13303;SDS011;6720;51.958;4.540;2022-11-15T07:27:58;12.00;;;6.70;;
13303;SDS011;6720;51.958;4.540;2022-11-15T07:30:24;9.90;;;7.80;;
13303;SDS011;6720;51.958;4.540;2022-11-15T07:32:57;12.80;;;7.77;;
13303;SDS011;6720;51.958;4.540;2022-11-15T07:35:26;13.77;;;7.50;;
13303;SDS011;6720;51.958;4.540;2022-11-15T07:37:59;12.47;;;6.87;;
13303;SDS011;6720;51.958;4.540;2022-11-15T07:40:29;10.63;;;7.17;;
13303;SDS011;6720;51.958;4.540;2022-11-15T07:43:02;11.57;;;6.73;;
13303;SDS011;6720;51.958;4.540;2022-11-15T07:45:29;13.40;;;7.67;;
13303;SDS011;6720;51.958;4.540;2022-11-15T07:47:55;11.67;;;7.37;;
13303;SDS011;6720;51.958;4.540;2022-11-15T07:50:21;11.03;;;6.70;;
13303;SDS011;6720;51.958;4.540;2022-11-15T07:52:52;9.67;;;6.70;;
13303;SDS011;6720;51.958;4.540;2022-11-15T07:55:18;10.60;;;6.67;;
13303;SDS011;6720;51.958;4.540;2022-11-15T07:57:43;9.50;;;7.20;;
13303;SDS011;6720;51.958;4.540;2022-11-15T08:00:09;11.90;;;7.13;;
13303;SDS011;6720;51.958;4.540;2022-11-15T08:02:35;10.60;;;7.03;;
13303;SDS011;6720;51.958;4.540;2022-11-15T08:05:00;13.27;;;7.80;;
13303;SDS011;6720;51.958;4.540;2022-11-15T08:07:28;11.77;;;7.40;;
13303;SDS011;6720;51.958;4.540;2022-11-15T08:09:54;14.20;;;8.47;;
13303;SDS011;6720;51.958;4.540;2022-11-15T08:12:20;14.53;;;8.97;;
13303;SDS011;6720;51.958;4.540;2022-11-15T08:14:45;13.40;;;9.23;;
13303;SDS011;6720;51.958;4.540;2022-11-15T08:17:11;15.90;;;9.63;;
13303;SDS011;6720;51.958;4.540;2022-11-15T08:19:36;16.60;;;9.73;;
13303;SDS011;6720;51.958;4.540;2022-11-15T08:22:01;14.77;;;9.03;;
13303;SDS011;6720;51.958;4.540;2022-11-15T08:24:27;12.90;;;9.10;;
13303;SDS011;6720;51.958;4.540;2022-11-15T08:26:55;12.10;;;8.67;;
13303;SDS011;6720;51.958;4.540;2022-11-15T08:29:21;15.10;;;8.87;;
13303;SDS011;6720;51.958;4.540;2022-11-15T08:31:46;12.47;;;7.83;;
13303;SDS011;6720;51.958;4.540;2022-11-15T08:34:12;11.77;;;8.43;;
13303;SDS011;6720;51.958;4.540;2022-11-15T08:36:37;13.17;;;9.43;;
13303;SDS011;6720;51.958;4.540;2022-11-15T08:39:02;10.80;;;9.07;;
13303;SDS011;6720;51.958;4.540;2022-11-15T08:41:30;14.37;;;9.60;;
13303;SDS011;6720;51.958;4.540;2022-11-15T08:44:00;12.03;;;9.30;;
13303;SDS011;6720;51.958;4.540;2022-11-15T08:46:27;13.07;;;8.80;;
13303;SDS011;6720;51.958;4.540;2022-11-15T08:48:54;13.07;;;8.63;;
13303;SDS011;6720;51.958;4.540;2022-11-15T08:51:19;13.13;;;8.67;;
13303;SDS011;6720;51.958;4.540;2022-11-15T08:53:45;11.87;;;8.80;;
13303;SDS011;6720;51.958;4.540;2022-11-15T08:56:11;12.20;;;7.63;;
13303;SDS011;6720;51.958;4.540;2022-11-15T08:58:39;10.90;;;8.47;;
13303;SDS011;6720;51.958;4.540;2022-11-15T09:01:05;15.17;;;8.53;;
13303;SDS011;6720;51.958;4.540;2022-11-15T09:03:30;12.97;;;7.83;;
13303;SDS011;6720;51.958;4.540;2022-11-15T09:05:58;9.07;;;7.70;;
13303;SDS011;6720;51.958;4.540;2022-11-15T09:08:28;11.67;;;7.63;;
13303;SDS011;6720;51.958;4.540;2022-11-15T09:10:56;12.53;;;7.53;;
13303;SDS011;6720;51.958;4.540;2022-11-15T09:13:21;14.00;;;7.63;;
13303;SDS011;6720;51.958;4.540;2022-11-15T09:15:47;11.30;;;6.93;;
13303;SDS011;6720;51.958;4.540;2022-11-15T09:18:12;10.37;;;6.90;;
13303;SDS011;6720;51.958;4.540;2022-11-15T09:20:38;11.93;;;6.50;;
13303;SDS011;6720;51.958;4.540;2022-11-15T09:23:04;11.43;;;7.30;;
13303;SDS011;6720;51.958;4.540;2022-11-15T09:25:29;8.00;;;5.83;;
13303;SDS011;6720;51.958;4.540;2022-11-15T09:27:55;7.80;;;6.63;;
13303;SDS011;6720;51.958;4.540;2022-11-15T09:30:21;7.37;;;5.83;;
13303;SDS011;6720;51.958;4.540;2022-11-15T09:32:47;8.50;;;5.97;;
13303;SDS011;6720;51.958;4.540;2022-11-15T09:35:13;10.47;;;6.30;;
13303;SDS011;6720;51.958;4.540;2022-11-15T09:37:38;9.50;;;5.67;;
13303;SDS011;6720;51.958;4.540;2022-11-15T09:40:05;8.30;;;5.47;;
13303;SDS011;6720;51.958;4.540;2022-11-15T09:50:42;8.63;;;5.90;;
13303;SDS011;6720;51.958;4.540;2022-11-15T09:53:12;8.27;;;5.50;;
13303;SDS011;6720;51.958;4.540;2022-11-15T09:55:56;7.03;;;5.10;;
13303;SDS011;6720;51.958;4.540;2022-11-15T09:58:30;5.90;;;4.50;;
13303;SDS011;6720;51.958;4.540;2022-11-15T10:01:02;5.47;;;4.23;;
13303;SDS011;6720;51.958;4.540;2022-11-15T10:03:34;7.93;;;5.00;;
13303;SDS011;6720;51.958;4.540;2022-11-15T10:06:02;5.50;;;4.47;;
13303;SDS011;6720;51.958;4.540;2022-11-15T10:11:11;8.33;;;4.60;;
13303;SDS011;6720;51.958;4.540;2022-11-15T10:13:41;9.43;;;4.60;;
13303;SDS011;6720;51.958;4.540;2022-11-15T10:21:45;6.17;;;4.33;;
13303;SDS011;6720;51.958;4.540;2022-11-15T10:24:18;7.63;;;4.37;;
13303;SDS011;6720;51.958;4.540;2022-11-15T10:26:48;6.63;;;4.80;;
13303;SDS011;6720;51.958;4.540;2022-11-15T10:29:20;6.73;;;4.50;;
13303;SDS011;6720;51.958;4.540;2022-11-15T10:31:46;6.80;;;4.10;;
13303;SDS011;6720;51.958;4.540;2022-11-15T10:34:13;7.03;;;4.53;;
13303;SDS011;6720;51.958;4.540;2022-11-15T10:36:46;7.37;;;4.63;;
13303;SDS011;6720;51.958;4.540;2022-11-15T10:39:20;5.43;;;4.53;;
13303;SDS011;6720;51.958;4.540;2022-11-15T10:41:45;7.40;;;3.90;;
13303;SDS011;6720;51.958;4.540;2022-11-15T10:47:06;5.10;;;3.97;;
13303;SDS011;6720;51.958;4.540;2022-11-15T10:49:52;7.23;;;4.60;;
13303;SDS011;6720;51.958;4.540;2022-11-15T10:52:19;8.50;;;4.30;;
13303;SDS011;6720;51.958;4.540;2022-11-15T10:57:37;6.30;;;3.90;;
13303;SDS011;6720;51.958;4.540;2022-11-15T11:00:06;6.27;;;3.80;;
13303;SDS011;6720;51.958;4.540;2022-11-15T11:08:03;6.57;;;3.50;;
13303;SDS011;6720;51.958;4.540;2022-11-15T11:10:30;4.63;;;3.33;;
13303;SDS011;6720;51.958;4.540;2022-11-15T11:13:11;8.50;;;3.43;;
13303;SDS011;6720;51.958;4.540;2022-11-15T11:15:38;5.73;;;3.23;;
13303;SDS011;6720;51.958;4.540;2022-11-15T11:18:06;3.80;;;2.77;;
13303;SDS011;6720;51.958;4.540;2022-11-15T11:20:38;6.70;;;3.43;;
13303;SDS011;6720;51.958;4.540;2022-11-15T11:26:00;6.90;;;3.10;;
13303;SDS011;6720;51.958;4.540;2022-11-15T11:29:08;6.33;;;3.20;;
13303;SDS011;6720;51.958;4.540;2022-11-15T11:31:39;6.90;;;3.03;;
13303;SDS011;6720;51.958;4.540;2022-11-15T11:36:59;6.20;;;2.90;;
13303;SDS011;6720;51.958;4.540;2022-11-15T11:39:48;9.17;;;3.20;;
13303;SDS011;6720;51.958;4.540;2022-11-15T11:45:16;8.23;;;3.83;;
13303;SDS011;6720;51.958;4.540;2022-11-15T11:50:37;4.70;;;2.80;;
13303;SDS011;6720;51.958;4.540;2022-11-15T11:53:05;6.60;;;2.70;;
13303;SDS011;6720;51.958;4.540;2022-11-15T11:55:41;6.87;;;2.80;;
13303;SDS011;6720;51.958;4.540;2022-11-15T11:58:28;6.53;;;3.27;;
13303;SDS011;6720;51.958;4.540;2022-11-15T12:01:14;4.67;;;2.60;;
13303;SDS011;6720;51.958;4.540;2022-11-15T12:07:05;7.17;;;2.70;;
13303;SDS011;6720;51.958;4.540;2022-11-15T12:09:43;7.63;;;2.93;;
13303;SDS011;6720;51.958;4.540;2022-11-15T12:13:03;4.90;;;2.30;;
13303;SDS011;6720;51.958;4.540;2022-11-15T12:17:35;5.73;;;2.53;;
13303;SDS011;6720;51.958;4.540;2022-11-15T12:20:04;6.23;;;2.43;;
13303;SDS011;6720;51.958;4.540;2022-11-15T12:22:53;3.53;;;2.30;;
13303;SDS011;6720;51.958;4.540;2022-11-15T12:27:55;6.23;;;2.43;;
13303;SDS011;6720;51.958;4.540;2022-11-15T12:30:29;7.23;;;2.73;;
13303;SDS011;6720;51.958;4.540;2022-11-15T12:33:17;4.93;;;2.40;;
13303;SDS011;6720;51.958;4.540;2022-11-15T12:36:04;6.13;;;3.00;;
13303;SDS011;6720;51.958;4.540;2022-11-15T12:38:53;4.53;;;2.30;;
13303;SDS011;6720;51.958;4.540;2022-11-15T12:41:20;7.73;;;2.40;;
13303;SDS011;6720;51.958;4.540;2022-11-15T12:43:47;4.93;;;2.37;;
13303;SDS011;6720;51.958;4.540;2022-11-15T12:51:19;5.47;;;2.37;;
13303;SDS011;6720;51.958;4.540;2022-11-15T12:53:45;6.00;;;3.03;;
13303;SDS011;6720;51.958;4.540;2022-11-15T13:12:09;6.23;;;2.20;;
13303;SDS011;6720;51.958;4.540;2022-11-15T13:19:43;6.03;;;2.17;;
13303;SDS011;6720;51.958;4.540;2022-11-15T13:22:11;4.20;;;2.03;;
13303;SDS011;6720;51.958;4.540;2022-11-15T13:24:56;4.70;;;2.00;;
13303;SDS011;6720;51.958;4.540;2022-11-15T13:27:21;5.83;;;2.10;;
13303;SDS011;6720;51.958;4.540;2022-11-15T13:29:47;7.47;;;2.30;;
13303;SDS011;6720;51.958;4.540;2022-11-15T13:32:13;5.77;;;2.00;;
13303;SDS011;6720;51.958;4.540;2022-11-15T13:34:44;8.20;;;2.37;;
13303;SDS011;6720;51.958;4.540;2022-11-15T13:39:46;3.63;;;2.10;;
13303;SDS011;6720;51.958;4.540;2022-11-15T13:42:16;5.87;;;2.30;;
13303;SDS011;6720;51.958;4.540;2022-11-15T13:45:00;4.93;;;2.00;;
13303;SDS011;6720;51.958;4.540;2022-11-15T13:47:28;5.73;;;2.37;;
13303;SDS011;6720;51.958;4.540;2022-11-15T13:49:57;4.43;;;2.00;;
13303;SDS011;6720;51.958;4.540;2022-11-15T13:52:25;4.23;;;2.30;;
13303;SDS011;6720;51.958;4.540;2022-11-15T14:03:03;4.90;;;2.20;;
13303;SDS011;6720;51.958;4.540;2022-11-15T14:05:42;2.47;;;1.70;;
13303;SDS011;6720;51.958;4.540;2022-11-15T14:10:45;4.00;;;2.13;;
13303;SDS011;6720;51.958;4.540;2022-11-15T14:13:25;10.03;;;2.47;;
13303;SDS011;6720;51.958;4.540;2022-11-15T14:15:52;6.17;;;2.43;;
13303;SDS011;6720;51.958;4.540;2022-11-15T14:21:08;5.53;;;2.20;;
13303;SDS011;6720;51.958;4.540;2022-11-15T14:23:34;12.93;;;2.80;;
13303;SDS011;6720;51.958;4.540;2022-11-15T14:25:59;5.13;;;1.87;;
13303;SDS011;6720;51.958;4.540;2022-11-15T14:30:51;5.50;;;2.20;;
13303;SDS011;6720;51.958;4.540;2022-11-15T14:35:58;4.60;;;2.00;;
13303;SDS011;6720;51.958;4.540;2022-11-15T14:38:28;2.87;;;1.87;;
13303;SDS011;6720;51.958;4.540;2022-11-15T14:40:54;5.17;;;2.50;;
13303;SDS011;6720;51.958;4.540;2022-11-15T14:43:20;5.67;;;2.70;;
13303;SDS011;6720;51.958;4.540;2022-11-15T14:45:46;4.33;;;2.20;;
13303;SDS011;6720;51.958;4.540;2022-11-15T14:48:12;4.33;;;2.10;;
13303;SDS011;6720;51.958;4.540;2022-11-15T14:50:37;4.43;;;2.13;;
13303;SDS011;6720;51.958;4.540;2022-11-15T14:53:03;3.83;;;2.10;;
13303;SDS011;6720;51.958;4.540;2022-11-15T14:55:34;5.17;;;2.40;;
13303;SDS011;6720;51.958;4.540;2022-11-15T14:58:04;4.97;;;2.30;;
13303;SDS011;6720;51.958;4.540;2022-11-15T15:00:33;6.07;;;2.37;;
13303;SDS011;6720;51.958;4.540;2022-11-15T15:02:59;2.30;;;1.77;;
13303;SDS011;6720;51.958;4.540;2022-11-15T15:07:58;4.87;;;2.00;;
13303;SDS011;6720;51.958;4.540;2022-11-15T15:10:25;2.30;;;1.90;;
13303;SDS011;6720;51.958;4.540;2022-11-15T15:12:55;4.10;;;2.37;;
13303;SDS011;6720;51.958;4.540;2022-11-15T15:15:22;2.73;;;2.17;;
13303;SDS011;6720;51.958;4.540;2022-11-15T15:17:49;5.10;;;2.60;;
13303;SDS011;6720;51.958;4.540;2022-11-15T15:20:15;3.13;;;2.20;;
13303;SDS011;6720;51.958;4.540;2022-11-15T15:22:40;5.10;;;2.13;;
13303;SDS011;6720;51.958;4.540;2022-11-15T15:27:46;4.40;;;2.00;;
13303;SDS011;6720;51.958;4.540;2022-11-15T15:30:12;4.80;;;2.20;;
13303;SDS011;6720;51.958;4.540;2022-11-15T15:32:38;4.53;;;2.33;;
13303;SDS011;6720;51.958;4.540;2022-11-15T15:35:03;5.33;;;2.27;;
13303;SDS011;6720;51.958;4.540;2022-11-15T15:37:29;3.73;;;2.20;;
13303;SDS011;6720;51.958;4.540;2022-11-15T15:39:58;2.50;;;2.13;;
13303;SDS011;6720;51.958;4.540;2022-11-15T15:42:23;5.17;;;2.30;;
13303;SDS011;6720;51.958;4.540;2022-11-15T15:44:50;5.00;;;2.40;;
13303;SDS011;6720;51.958;4.540;2022-11-15T15:47:32;3.73;;;2.30;;
13303;SDS011;6720;51.958;4.540;2022-11-15T15:50:28;5.47;;;1.93;;
13303;SDS011;6720;51.958;4.540;2022-11-15T15:52:56;4.60;;;2.37;;
13303;SDS011;6720;51.958;4.540;2022-11-15T15:55:23;2.67;;;2.20;;
13303;SDS011;6720;51.958;4.540;2022-11-15T15:57:49;2.67;;;2.47;;
13303;SDS011;6720;51.958;4.540;2022-11-15T16:00:14;6.23;;;3.20;;
13303;SDS011;6720;51.958;4.540;2022-11-15T16:02:41;4.53;;;2.40;;
13303;SDS011;6720;51.958;4.540;2022-11-15T16:05:07;6.53;;;2.97;;
13303;SDS011;6720;51.958;4.540;2022-11-15T16:07:34;4.10;;;2.67;;
13303;SDS011;6720;51.958;4.540;2022-11-15T16:09:59;6.07;;;3.00;;
13303;SDS011;6720;51.958;4.540;2022-11-15T16:12:25;3.97;;;2.50;;
13303;SDS011;6720;51.958;4.540;2022-11-15T16:15:00;4.13;;;2.33;;
13303;SDS011;6720;51.958;4.540;2022-11-15T16:17:27;4.90;;;2.73;;
13303;SDS011;6720;51.958;4.540;2022-11-15T16:19:56;4.60;;;2.47;;
13303;SDS011;6720;51.958;4.540;2022-11-15T16:22:22;4.70;;;2.97;;
13303;SDS011;6720;51.958;4.540;2022-11-15T16:24:47;4.27;;;2.60;;
13303;SDS011;6720;51.958;4.540;2022-11-15T16:27:14;5.77;;;2.73;;
13303;SDS011;6720;51.958;4.540;2022-11-15T16:29:40;4.03;;;3.23;;
13303;SDS011;6720;51.958;4.540;2022-11-15T16:32:06;4.10;;;2.77;;
13303;SDS011;6720;51.958;4.540;2022-11-15T16:34:31;4.30;;;2.93;;
13303;SDS011;6720;51.958;4.540;2022-11-15T16:36:57;4.17;;;3.00;;
13303;SDS011;6720;51.958;4.540;2022-11-15T16:39:22;6.27;;;3.50;;
13303;SDS011;6720;51.958;4.540;2022-11-15T16:41:48;5.20;;;3.10;;
13303;SDS011;6720;51.958;4.540;2022-11-15T16:44:13;5.53;;;3.80;;
13303;SDS011;6720;51.958;4.540;2022-11-15T16:46:42;4.57;;;3.20;;
13303;SDS011;6720;51.958;4.540;2022-11-15T16:49:12;5.83;;;3.37;;
13303;SDS011;6720;51.958;4.540;2022-11-15T16:51:39;5.40;;;3.60;;
13303;SDS011;6720;51.958;4.540;2022-11-15T16:54:05;5.63;;;3.57;;
13303;SDS011;6720;51.958;4.540;2022-11-15T16:56:31;8.33;;;3.80;;
13303;SDS011;6720;51.958;4.540;2022-11-15T16:58:57;6.17;;;4.23;;
13303;SDS011;6720;51.958;4.540;2022-11-15T17:01:24;5.50;;;4.00;;
13303;SDS011;6720;51.958;4.540;2022-11-15T17:03:53;7.33;;;4.43;;